createdAt,value
2018-11-25T00:00:32.965Z,99268.00
2018-11-25T00:03:02.481Z,99255.00
2018-11-25T00:05:31.957Z,99257.00
2018-11-25T00:08:01.510Z,99255.00
2018-11-25T00:10:31.725Z,99264.00
2018-11-25T00:13:01.857Z,99261.00
2018-11-25T00:15:32.421Z,99263.00
2018-11-25T00:18:01.858Z,99267.00
2018-11-25T00:20:31.718Z,99258.00
2018-11-25T00:23:01.261Z,99271.00
2018-11-25T00:25:30.684Z,99265.00
2018-11-25T00:28:00.359Z,99271.00
2018-11-25T00:30:29.913Z,99266.00
2018-11-25T00:32:59.476Z,99265.00
2018-11-25T00:35:28.918Z,99263.00
2018-11-25T00:37:58.337Z,99257.00
2018-11-25T00:40:28.549Z,99267.00
2018-11-25T00:42:58.032Z,99262.00
2018-11-25T00:45:27.493Z,99268.00
2018-11-25T00:47:57.117Z,99257.00
2018-11-25T00:50:26.659Z,99245.00
2018-11-25T00:52:56.258Z,99253.00
2018-11-25T00:55:25.775Z,99248.00
2018-11-25T00:57:55.347Z,99253.00
2018-11-25T01:00:25.563Z,99254.00
2018-11-25T01:02:55.194Z,99248.00
2018-11-25T01:05:24.660Z,99251.00
2018-11-25T01:07:54.078Z,99249.00
2018-11-25T01:10:23.619Z,99245.00
2018-11-25T01:12:53.498Z,99243.00
2018-11-25T01:15:22.917Z,99250.00
2018-11-25T01:17:52.637Z,99250.00
2018-11-25T01:20:22.847Z,99245.00
2018-11-25T01:22:52.379Z,99248.00
2018-11-25T01:25:22.667Z,99233.00
2018-11-25T01:27:52.429Z,99234.00
2018-11-25T01:30:21.925Z,99233.00
2018-11-25T01:32:51.415Z,99240.00
2018-11-25T01:35:20.846Z,99233.00
2018-11-25T01:37:50.478Z,99237.00
2018-11-25T01:40:20.031Z,99242.00
2018-11-25T01:42:49.535Z,99228.00
2018-11-25T01:45:19.407Z,99225.00
2018-11-25T01:47:51.084Z,99233.00
2018-11-25T01:50:21.512Z,99222.00
2018-11-25T01:52:51.077Z,99220.00
2018-11-25T01:55:20.489Z,99225.00
2018-11-25T01:57:49.958Z,99217.00
2018-11-25T02:00:21.799Z,99224.00
2018-11-25T02:02:51.555Z,99219.00
2018-11-25T02:05:21.167Z,99213.00
2018-11-25T02:07:50.658Z,99207.00
2018-11-25T02:10:20.383Z,99213.00
2018-11-25T02:12:49.926Z,99217.00
2018-11-25T02:15:19.576Z,99203.00
2018-11-25T02:17:49.095Z,99201.00
2018-11-25T02:20:23.689Z,99196.00
2018-11-25T02:22:54.992Z,99196.00
2018-11-25T02:25:24.363Z,99198.00
2018-11-25T02:27:53.840Z,99200.00
2018-11-25T02:30:23.288Z,99205.00
2018-11-25T02:32:52.681Z,99204.00
2018-11-25T02:35:22.243Z,99204.00
2018-11-25T02:37:51.803Z,99206.00
2018-11-25T02:40:21.277Z,99208.00
2018-11-25T02:42:50.909Z,99198.00
2018-11-25T02:45:20.534Z,99203.00
2018-11-25T02:47:49.971Z,99204.00
2018-11-25T02:50:26.623Z,99197.00
2018-11-25T02:52:57.641Z,99199.00
2018-11-25T02:55:27.968Z,99196.00
2018-11-25T02:57:57.441Z,99197.00
2018-11-25T03:00:26.939Z,99200.00
2018-11-25T03:02:56.463Z,99205.00
2018-11-25T03:05:25.887Z,99195.00
2018-11-25T03:07:55.272Z,99204.00
2018-11-25T03:10:24.877Z,99191.00
2018-11-25T03:12:54.472Z,99187.00
2018-11-25T03:15:23.917Z,99193.00
2018-11-25T03:17:53.546Z,99189.00
2018-11-25T03:20:23.277Z,99188.00
2018-11-25T03:22:52.722Z,99184.00
2018-11-25T03:25:22.534Z,99190.00
2018-11-25T03:27:52.165Z,99187.00
2018-11-25T03:30:22.866Z,99188.00
2018-11-25T03:32:53.697Z,99190.00
2018-11-25T03:35:23.100Z,99186.00
2018-11-25T03:37:52.562Z,99193.00
2018-11-25T03:40:22.109Z,99194.00
2018-11-25T03:42:51.797Z,99188.00
2018-11-25T03:45:22.386Z,99192.00
2018-11-25T03:47:51.816Z,99184.00
2018-11-25T03:50:21.307Z,99191.00
2018-11-25T03:52:50.877Z,99187.00
2018-11-25T03:55:20.458Z,99194.00
2018-11-25T03:57:50.829Z,99193.00
2018-11-25T04:00:22.656Z,99190.00
2018-11-25T04:02:53.868Z,99187.00
2018-11-25T04:05:25.245Z,99176.00
2018-11-25T04:07:54.750Z,99179.00
2018-11-25T04:10:24.419Z,99163.00
2018-11-25T04:12:53.863Z,99168.00
2018-11-25T04:15:24.321Z,99163.00
2018-11-25T04:17:53.747Z,99160.00
2018-11-25T04:20:23.303Z,99159.00
2018-11-25T04:22:52.735Z,99159.00
2018-11-25T04:25:23.132Z,99163.00
2018-11-25T04:27:52.679Z,99160.00
2018-11-25T04:30:22.199Z,99167.00
2018-11-25T04:32:52.162Z,99169.00
2018-11-25T04:35:21.647Z,99168.00
2018-11-25T04:37:51.823Z,99173.00
2018-11-25T04:40:21.441Z,99167.00
2018-11-25T04:42:51.516Z,99174.00
2018-11-25T04:45:21.095Z,99172.00
2018-11-25T04:47:50.782Z,99170.00
2018-11-25T04:50:21.454Z,99169.00
2018-11-25T04:52:50.903Z,99170.00
2018-11-25T04:55:20.927Z,99174.00
2018-11-25T04:57:53.144Z,99168.00
2018-11-25T05:00:22.696Z,99168.00
2018-11-25T05:02:52.627Z,99165.00
2018-11-25T05:05:22.062Z,99160.00
2018-11-25T05:07:51.509Z,99156.00
2018-11-25T05:10:21.547Z,99158.00
2018-11-25T05:12:51.055Z,99164.00
2018-11-25T05:15:22.374Z,99154.00
2018-11-25T05:17:52.530Z,99151.00
2018-11-25T05:20:23.325Z,99144.00
2018-11-25T05:22:53.248Z,99148.00
2018-11-25T05:25:22.828Z,99136.00
2018-11-25T05:27:52.244Z,99139.00
2018-11-25T05:30:22.226Z,99135.00
2018-11-25T05:32:51.685Z,99130.00
2018-11-25T05:35:22.565Z,99132.00
2018-11-25T05:37:52.131Z,99130.00
2018-11-25T05:40:21.727Z,99130.00
2018-11-25T05:42:51.767Z,99133.00
2018-11-25T05:45:21.559Z,99137.00
2018-11-25T05:47:51.515Z,99133.00
2018-11-25T05:50:21.219Z,99137.00
2018-11-25T05:52:50.822Z,99133.00
2018-11-25T05:55:20.436Z,99137.00
2018-11-25T05:57:50.047Z,99137.00
2018-11-25T06:00:23.660Z,99141.00
2018-11-25T06:02:53.759Z,99132.00
2018-11-25T06:05:23.164Z,99130.00
2018-11-25T06:07:52.619Z,99128.00
2018-11-25T06:10:22.183Z,99122.00
2018-11-25T06:12:51.881Z,99128.00
2018-11-25T06:15:21.451Z,99130.00
2018-11-25T06:17:50.989Z,99128.00
2018-11-25T06:20:20.337Z,99121.00
2018-11-25T06:22:49.873Z,99134.00
2018-11-25T06:25:21.790Z,99128.00
2018-11-25T06:27:51.944Z,99142.00
2018-11-25T06:30:21.826Z,99145.00
2018-11-25T06:32:51.331Z,99144.00
2018-11-25T06:35:21.217Z,99145.00
2018-11-25T06:37:51.487Z,99151.00
2018-11-25T06:40:21.377Z,99152.00
2018-11-25T06:42:50.907Z,99147.00
2018-11-25T06:45:29.050Z,99153.00
2018-11-25T06:47:59.321Z,99153.00
2018-11-25T06:50:28.809Z,99149.00
2018-11-25T06:52:58.345Z,99161.00
2018-11-25T06:55:27.745Z,99154.00
2018-11-25T06:57:57.250Z,99158.00
2018-11-25T07:00:27.131Z,99165.00
2018-11-25T07:02:56.734Z,99166.00
2018-11-25T07:05:26.159Z,99162.00
2018-11-25T07:07:55.526Z,99167.00
2018-11-25T07:10:24.957Z,99168.00
2018-11-25T07:12:56.024Z,99169.00
2018-11-25T07:15:25.490Z,99168.00
2018-11-25T07:17:55.485Z,99170.00
2018-11-25T07:20:24.894Z,99160.00
2018-11-25T07:22:54.385Z,99160.00
2018-11-25T07:25:24.515Z,99168.00
2018-11-25T07:27:54.418Z,99176.00
2018-11-25T07:30:27.913Z,99171.00
2018-11-25T07:32:57.623Z,99169.00
2018-11-25T07:35:28.437Z,99169.00
2018-11-25T07:37:57.937Z,99164.00
2018-11-25T07:40:27.818Z,99166.00
2018-11-25T07:42:57.300Z,99173.00
2018-11-25T07:45:30.410Z,99175.00
2018-11-25T07:47:56.791Z,99177.00
2018-11-25T07:50:26.417Z,99178.00
2018-11-25T07:52:55.893Z,99173.00
2018-11-25T07:55:26.614Z,99173.00
2018-11-25T07:57:58.136Z,99175.00
2018-11-25T08:00:27.996Z,99177.00
2018-11-25T08:02:58.363Z,99172.00
2018-11-25T08:05:28.734Z,99171.00
2018-11-25T08:07:58.207Z,99170.00
2018-11-25T08:10:27.662Z,99166.00
2018-11-25T08:12:57.108Z,99175.00
2018-11-25T08:15:26.659Z,99179.00
2018-11-25T08:17:56.135Z,99170.00
2018-11-25T08:20:25.715Z,99173.00
2018-11-25T08:22:55.226Z,99172.00
2018-11-25T08:25:24.620Z,99166.00
2018-11-25T08:27:54.329Z,99162.00
2018-11-25T08:30:24.743Z,99165.00
2018-11-25T08:32:54.417Z,99164.00
2018-11-25T08:35:23.958Z,99166.00
2018-11-25T08:37:53.576Z,99168.00
2018-11-25T08:40:25.243Z,99158.00
2018-11-25T08:42:54.963Z,99168.00
2018-11-25T08:45:24.474Z,99166.00
2018-11-25T08:47:54.184Z,99163.00
2018-11-25T08:50:23.606Z,99167.00
2018-11-25T08:52:53.931Z,99161.00
2018-11-25T08:55:25.648Z,99167.00
2018-11-25T08:57:56.413Z,99168.00
2018-11-25T09:00:27.382Z,99168.00
2018-11-25T09:02:57.708Z,99157.00
2018-11-25T09:05:27.435Z,99162.00
2018-11-25T09:07:56.917Z,99164.00
2018-11-25T09:10:26.563Z,99165.00
2018-11-25T09:12:57.719Z,99166.00
2018-11-25T09:15:30.075Z,99162.00
2018-11-25T09:18:00.182Z,99163.00
2018-11-25T09:20:29.659Z,99163.00
2018-11-25T09:22:59.069Z,99169.00
2018-11-25T09:25:33.371Z,99169.00
2018-11-25T09:28:03.993Z,99168.00
2018-11-25T09:30:34.453Z,99167.00
2018-11-25T09:33:04.595Z,99167.00
2018-11-25T09:35:34.145Z,99173.00
2018-11-25T09:38:04.295Z,99173.00
2018-11-25T09:40:33.673Z,99159.00
2018-11-25T09:43:03.109Z,99161.00
2018-11-25T09:45:33.090Z,99163.00
2018-11-25T09:48:02.561Z,99156.00
2018-11-25T09:50:32.622Z,99163.00
2018-11-25T09:53:02.576Z,99164.00
2018-11-25T09:55:31.978Z,99156.00
2018-11-25T09:58:02.201Z,99161.00
2018-11-25T10:00:37.107Z,99163.00
2018-11-25T10:03:07.631Z,99163.00
2018-11-25T10:05:37.479Z,99165.00
2018-11-25T10:08:06.898Z,99155.00
2018-11-25T10:10:36.289Z,99157.00
2018-11-25T10:13:06.124Z,99154.00
2018-11-25T10:15:35.606Z,99147.00
2018-11-25T10:18:05.398Z,99151.00
2018-11-25T10:20:34.915Z,99148.00
2018-11-25T10:23:04.498Z,99144.00
2018-11-25T10:25:33.902Z,99144.00
2018-11-25T10:28:03.423Z,99129.00
2018-11-25T10:30:33.068Z,99134.00
2018-11-25T10:33:07.757Z,99142.00
2018-11-25T10:35:37.244Z,99130.00
2018-11-25T10:38:07.200Z,99125.00
2018-11-25T10:40:36.599Z,99131.00
2018-11-25T10:43:06.118Z,99125.00
2018-11-25T10:45:35.733Z,99124.00
2018-11-25T10:48:05.571Z,99112.00
2018-11-25T10:50:35.066Z,99113.00
2018-11-25T10:53:04.476Z,99118.00
2018-11-25T10:55:34.019Z,99108.00
2018-11-25T10:58:03.703Z,99116.00
2018-11-25T11:00:40.126Z,99101.00
2018-11-25T11:03:15.844Z,99102.00
2018-11-25T11:05:50.527Z,99100.00
2018-11-25T11:08:20.138Z,99106.00
2018-11-25T11:10:49.679Z,99109.00
2018-11-25T11:13:19.159Z,99090.00
2018-11-25T11:15:49.274Z,99096.00
2018-11-25T11:18:19.169Z,99087.00
2018-11-25T11:20:48.694Z,99083.00
2018-11-25T11:23:18.297Z,99085.00
2018-11-25T11:25:48.126Z,99083.00
2018-11-25T11:28:17.755Z,99083.00
2018-11-25T11:30:47.167Z,99080.00
2018-11-25T11:33:16.641Z,99080.00
2018-11-25T11:35:46.385Z,99086.00
2018-11-25T11:38:15.853Z,99084.00
2018-11-25T11:40:46.110Z,99081.00
2018-11-25T11:43:15.503Z,99083.00
2018-11-25T11:45:44.975Z,99078.00
2018-11-25T11:48:14.460Z,99076.00
2018-11-25T11:50:43.921Z,99074.00
2018-11-25T11:53:13.337Z,99079.00
2018-11-25T11:55:42.865Z,99071.00
2018-11-25T11:58:12.447Z,99072.00
2018-11-25T12:00:41.982Z,99071.00
2018-11-25T12:03:12.162Z,99080.00
2018-11-25T12:05:41.557Z,99072.00
2018-11-25T12:08:10.986Z,99075.00
2018-11-25T12:10:40.502Z,99064.00
2018-11-25T12:13:10.042Z,99066.00
2018-11-25T12:15:39.466Z,99063.00
2018-11-25T12:18:09.328Z,99072.00
2018-11-25T12:20:39.654Z,99065.00
2018-11-25T12:23:10.006Z,99064.00
2018-11-25T12:25:39.608Z,99061.00
2018-11-25T12:28:09.747Z,99062.00
2018-11-25T12:30:39.130Z,99063.00
2018-11-25T12:33:08.639Z,99056.00
2018-11-25T12:35:38.133Z,99050.00
2018-11-25T12:38:07.862Z,99047.00
2018-11-25T12:40:37.248Z,99049.00
2018-11-25T12:43:07.481Z,99042.00
2018-11-25T12:45:36.852Z,99048.00
2018-11-25T12:48:07.092Z,99052.00
2018-11-25T12:50:36.620Z,99039.00
2018-11-25T12:53:07.396Z,99058.00
2018-11-25T12:55:37.522Z,99053.00
2018-11-25T12:58:07.093Z,99040.00
2018-11-25T13:00:39.445Z,99049.00
2018-11-25T13:03:11.244Z,99038.00
2018-11-25T13:05:45.991Z,99039.00
2018-11-25T13:08:13.279Z,99034.00
2018-11-25T13:10:42.947Z,99032.00
2018-11-25T13:13:13.328Z,99025.00
2018-11-25T13:15:43.654Z,99025.00
2018-11-25T13:18:13.306Z,99031.00
2018-11-25T13:20:43.164Z,99022.00
2018-11-25T13:23:12.766Z,99025.00
2018-11-25T13:25:43.535Z,99028.00
2018-11-25T13:28:13.364Z,99023.00
2018-11-25T13:30:42.910Z,99027.00
2018-11-25T13:33:12.361Z,99015.00
2018-11-25T13:35:42.031Z,99022.00
2018-11-25T13:38:11.476Z,99016.00
2018-11-25T13:40:41.054Z,99018.00
2018-11-25T13:43:10.710Z,99020.00
2018-11-25T13:45:40.422Z,99025.00
2018-11-25T13:48:10.750Z,99024.00
2018-11-25T13:50:40.219Z,99017.00
2018-11-25T13:53:09.729Z,99029.00
2018-11-25T13:55:39.423Z,99028.00
2018-11-25T13:58:08.915Z,99015.00
2018-11-25T14:00:44.082Z,99018.00
2018-11-25T14:03:19.892Z,99018.00
2018-11-25T14:05:53.060Z,99020.00
2018-11-25T14:08:19.014Z,99021.00
2018-11-25T14:10:49.536Z,99024.00
2018-11-25T14:13:19.078Z,99026.00
2018-11-25T14:15:49.122Z,99024.00
2018-11-25T14:18:18.644Z,99020.00
2018-11-25T14:20:48.113Z,99012.00
2018-11-25T14:23:17.490Z,99018.00
2018-11-25T14:25:47.032Z,99010.00
2018-11-25T14:28:17.267Z,99025.00
2018-11-25T14:30:46.839Z,99021.00
2018-11-25T14:33:16.346Z,99022.00
2018-11-25T14:35:45.893Z,99026.00
2018-11-25T14:38:15.668Z,99029.00
2018-11-25T14:40:45.122Z,99036.00
2018-11-25T14:43:14.620Z,99031.00
2018-11-25T14:45:44.096Z,99023.00
2018-11-25T14:48:13.567Z,99026.00
2018-11-25T14:50:42.992Z,99022.00
2018-11-25T14:53:13.234Z,99025.00
2018-11-25T14:55:42.725Z,99012.00
2018-11-25T14:58:12.390Z,99016.00
2018-11-25T15:00:42.126Z,99016.00
2018-11-25T15:03:11.610Z,99025.00
2018-11-25T15:05:46.320Z,99034.00
2018-11-25T15:08:21.983Z,99032.00
2018-11-25T15:10:51.729Z,99013.00
2018-11-25T15:13:21.207Z,99018.00
2018-11-25T15:15:51.029Z,99015.00
2018-11-25T15:18:20.479Z,99014.00
2018-11-25T15:20:49.986Z,99007.00
2018-11-25T15:23:19.472Z,99013.00
2018-11-25T15:25:52.885Z,99014.00
2018-11-25T15:28:22.267Z,99012.00
2018-11-25T15:30:51.695Z,99010.00
2018-11-25T15:33:21.140Z,99016.00
2018-11-25T15:35:50.711Z,99011.00
2018-11-25T15:38:20.289Z,99005.00
2018-11-25T15:40:49.780Z,99005.00
2018-11-25T15:43:19.223Z,99009.00
2018-11-25T15:45:48.740Z,99011.00
2018-11-25T15:48:24.486Z,99006.00
2018-11-25T15:50:54.326Z,99001.00
2018-11-25T15:53:23.855Z,99017.00
2018-11-25T15:55:55.888Z,99009.00
2018-11-25T15:58:25.484Z,99003.00
2018-11-25T16:00:55.066Z,99009.00
2018-11-25T16:03:24.566Z,99005.00
2018-11-25T16:05:59.258Z,99000.00
2018-11-25T16:08:28.718Z,99000.00
2018-11-25T16:10:58.661Z,99000.00
2018-11-25T16:13:28.191Z,98994.00
2018-11-25T16:15:57.694Z,98996.00
2018-11-25T16:18:27.078Z,98995.00
2018-11-25T16:20:56.615Z,99001.00
2018-11-25T16:23:27.182Z,98993.00
2018-11-25T16:26:00.065Z,98988.00
2018-11-25T16:28:38.611Z,98996.00
2018-11-25T16:31:09.528Z,98984.00
2018-11-25T16:33:39.107Z,98988.00
2018-11-25T16:36:08.596Z,98995.00
2018-11-25T16:38:39.046Z,98994.00
2018-11-25T16:41:08.738Z,98992.00
2018-11-25T16:43:38.146Z,98994.00
2018-11-25T16:46:07.630Z,98985.00
2018-11-25T16:48:37.234Z,98983.00
2018-11-25T16:51:07.242Z,98986.00
2018-11-25T16:53:36.600Z,98991.00
2018-11-25T16:56:06.836Z,98995.00
2018-11-25T16:58:36.213Z,98995.00
2018-11-25T17:01:09.731Z,99001.00
2018-11-25T17:03:35.564Z,99000.00
2018-11-25T17:06:06.099Z,99002.00
2018-11-25T17:08:38.352Z,99010.00
2018-11-25T17:11:08.841Z,99011.00
2018-11-25T17:13:38.473Z,99009.00
2018-11-25T17:16:09.319Z,99002.00
2018-11-25T17:18:39.729Z,99007.00
2018-11-25T17:21:10.066Z,99003.00
2018-11-25T17:23:39.913Z,99012.00
2018-11-25T17:26:09.461Z,99010.00
2018-11-25T17:28:39.380Z,99014.00
2018-11-25T17:31:08.811Z,99016.00
2018-11-25T17:33:38.287Z,99014.00
2018-11-25T17:36:07.753Z,99008.00
2018-11-25T17:38:37.188Z,99008.00
2018-11-25T17:41:06.981Z,99015.00
2018-11-25T17:43:36.399Z,99011.00
2018-11-25T17:46:05.992Z,99008.00
2018-11-25T17:48:35.557Z,99009.00
2018-11-25T17:51:05.030Z,99008.00
2018-11-25T17:53:34.393Z,99002.00
2018-11-25T17:56:04.021Z,99006.00
2018-11-25T17:58:33.470Z,99017.00
2018-11-25T18:01:07.401Z,99025.00
2018-11-25T18:03:38.453Z,99031.00
2018-11-25T18:06:08.217Z,99031.00
2018-11-25T18:08:37.743Z,99028.00
2018-11-25T18:11:07.745Z,99030.00
2018-11-25T18:13:40.216Z,99040.00
2018-11-25T18:16:11.559Z,99039.00
2018-11-25T18:18:44.998Z,99049.00
2018-11-25T18:21:18.575Z,99037.00
2018-11-25T18:23:47.993Z,99043.00
2018-11-25T18:26:17.374Z,99035.00
2018-11-25T18:28:47.325Z,99036.00
2018-11-25T18:31:17.220Z,99037.00
2018-11-25T18:33:46.740Z,99040.00
2018-11-25T18:36:16.156Z,99049.00
2018-11-25T18:38:45.567Z,99044.00
2018-11-25T18:41:15.350Z,99040.00
2018-11-25T18:43:44.881Z,99044.00
2018-11-25T18:46:14.304Z,99055.00
2018-11-25T18:48:46.730Z,99056.00
2018-11-25T18:51:16.259Z,99042.00
2018-11-25T18:53:45.638Z,99051.00
2018-11-25T18:56:15.031Z,99059.00
2018-11-25T18:58:44.483Z,99052.00
2018-11-25T19:01:31.711Z,99052.00
2018-11-25T19:04:01.480Z,99041.00
2018-11-25T19:06:30.895Z,99051.00
2018-11-25T19:09:00.377Z,99040.00
2018-11-25T19:11:30.059Z,99053.00
2018-11-25T19:13:59.547Z,99042.00
2018-11-25T19:16:29.950Z,99047.00
2018-11-25T19:19:00.094Z,99038.00
2018-11-25T19:21:29.761Z,99048.00
2018-11-25T19:23:59.163Z,99039.00
2018-11-25T19:26:28.654Z,99042.00
2018-11-25T19:28:58.171Z,99041.00
2018-11-25T19:31:28.194Z,99033.00
2018-11-25T19:33:57.583Z,99031.00
2018-11-25T19:36:27.053Z,99049.00
2018-11-25T19:38:56.581Z,99048.00
2018-11-25T19:41:25.987Z,99056.00
2018-11-25T19:43:55.546Z,99055.00
2018-11-25T19:46:25.158Z,99053.00
2018-11-25T19:48:55.002Z,99059.00
2018-11-25T19:51:24.521Z,99064.00
2018-11-25T19:53:53.990Z,99066.00
2018-11-25T19:56:23.404Z,99057.00
2018-11-25T19:58:57.179Z,99059.00
2018-11-25T20:01:27.658Z,99053.00
2018-11-25T20:03:57.130Z,99058.00
2018-11-25T20:06:26.798Z,99055.00
2018-11-25T20:08:57.130Z,99053.00
2018-11-25T20:11:26.525Z,99055.00
2018-11-25T20:13:56.290Z,99058.00
2018-11-25T20:16:31.844Z,99060.00
2018-11-25T20:19:01.377Z,99063.00
2018-11-25T20:21:36.061Z,99058.00
2018-11-25T20:24:05.887Z,99068.00
2018-11-25T20:26:35.490Z,99056.00
2018-11-25T20:29:04.998Z,99055.00
2018-11-25T20:31:34.497Z,99052.00
2018-11-25T20:34:04.058Z,99044.00
2018-11-25T20:36:33.598Z,99041.00
2018-11-25T20:39:08.388Z,99055.00
2018-11-25T20:41:37.853Z,99052.00
2018-11-25T20:44:07.925Z,99042.00
2018-11-25T20:47:10.890Z,99040.00
2018-11-25T20:49:41.530Z,99050.00
2018-11-25T20:52:16.316Z,99041.00
2018-11-25T20:54:45.934Z,99042.00
2018-11-25T20:57:15.674Z,99053.00
2018-11-25T20:59:45.141Z,99049.00
2018-11-25T21:02:20.197Z,99051.00
2018-11-25T21:04:44.731Z,99047.00
2018-11-25T21:07:14.204Z,99048.00
2018-11-25T21:09:43.731Z,99047.00
2018-11-25T21:12:13.726Z,99051.00
2018-11-25T21:14:43.114Z,99052.00
2018-11-25T21:17:13.327Z,99047.00
2018-11-25T21:19:42.911Z,99049.00
2018-11-25T21:22:12.359Z,99052.00
2018-11-25T21:24:41.852Z,99039.00
2018-11-25T21:27:11.395Z,99048.00
2018-11-25T21:29:40.888Z,99035.00
2018-11-25T21:32:11.434Z,99033.00
2018-11-25T21:34:40.892Z,99030.00
2018-11-25T21:37:10.413Z,99025.00
2018-11-25T21:39:39.826Z,99025.00
2018-11-25T21:42:09.355Z,99025.00
2018-11-25T21:44:38.848Z,99030.00
2018-11-25T21:47:08.386Z,99026.00
2018-11-25T21:49:37.810Z,99035.00
2018-11-25T21:52:07.772Z,99026.00
2018-11-25T21:54:37.285Z,99026.00
2018-11-25T21:57:07.049Z,99029.00
2018-11-25T21:59:37.126Z,99019.00
2018-11-25T22:02:07.196Z,99022.00
2018-11-25T22:04:37.166Z,99018.00
2018-11-25T22:07:07.012Z,99024.00
2018-11-25T22:09:36.504Z,99017.00
2018-11-25T22:12:06.518Z,99022.00
2018-11-25T22:14:36.054Z,99035.00
2018-11-25T22:17:06.061Z,99030.00
2018-11-25T22:19:35.938Z,99030.00
2018-11-25T22:22:06.204Z,99042.00
2018-11-25T22:24:35.705Z,99036.00
2018-11-25T22:27:05.402Z,99043.00
2018-11-25T22:29:34.867Z,99030.00
2018-11-25T22:32:04.332Z,99038.00
2018-11-25T22:34:33.863Z,99033.00
2018-11-25T22:37:03.357Z,99033.00
2018-11-25T22:39:33.264Z,99038.00
2018-11-25T22:42:03.099Z,99031.00
2018-11-25T22:44:32.893Z,99024.00
2018-11-25T22:47:02.337Z,99026.00
2018-11-25T22:49:31.781Z,99029.00
2018-11-25T22:52:01.251Z,99024.00
2018-11-25T22:54:30.637Z,99021.00
2018-11-25T22:57:00.154Z,99020.00
2018-11-25T22:59:29.536Z,99021.00
2018-11-25T23:01:59.981Z,99021.00
2018-11-25T23:04:46.377Z,99016.00
2018-11-25T23:07:15.893Z,99014.00
2018-11-25T23:09:45.402Z,99020.00
2018-11-25T23:12:14.913Z,99020.00
2018-11-25T23:14:44.455Z,99024.00
2018-11-25T23:17:13.918Z,99019.00
2018-11-25T23:19:43.778Z,99012.00
2018-11-25T23:22:13.268Z,99015.00
2018-11-25T23:24:43.665Z,99010.00
2018-11-25T23:27:13.152Z,99024.00
2018-11-25T23:29:42.610Z,99013.00
2018-11-25T23:32:12.095Z,99016.00
2018-11-25T23:34:41.613Z,99025.00
2018-11-25T23:37:11.239Z,99016.00
2018-11-25T23:39:40.677Z,99025.00
2018-11-25T23:42:10.250Z,99024.00
2018-11-25T23:44:39.763Z,99020.00
2018-11-25T23:47:09.228Z,99023.00
2018-11-25T23:49:38.683Z,99018.00
2018-11-25T23:52:08.481Z,99019.00
2018-11-25T23:54:37.903Z,99016.00
2018-11-25T23:57:07.508Z,99025.00
2018-11-25T23:59:37.077Z,99026.00
